createdAt,value
2022-11-27T00:01:36.747Z,5.00
2022-11-27T00:04:05.913Z,4.90
2022-11-27T00:06:35.364Z,4.90
2022-11-27T00:09:05.889Z,4.80
2022-11-27T00:11:34.308Z,4.90
2022-11-27T00:14:07.164Z,4.80
2022-11-27T00:16:35.232Z,4.80
2022-11-27T00:19:03.484Z,4.80
2022-11-27T00:21:34.440Z,4.80
2022-11-27T00:24:04.515Z,4.70
2022-11-27T00:26:37.761Z,4.80
2022-11-27T00:29:10.897Z,4.80
2022-11-27T00:31:41.422Z,4.80
2022-11-27T00:34:10.023Z,4.80
2022-11-27T00:36:39.801Z,4.80
2022-11-27T00:39:10.827Z,4.80
2022-11-27T00:41:39.209Z,4.80
2022-11-27T00:44:08.706Z,4.80
2022-11-27T00:46:38.310Z,4.90
2022-11-27T00:49:07.678Z,4.90
2022-11-27T00:51:36.544Z,4.90
2022-11-27T00:54:05.014Z,4.90
2022-11-27T00:56:35.447Z,4.90
2022-11-27T00:59:04.435Z,5.00
2022-11-27T01:01:36.045Z,4.90
2022-11-27T01:04:05.763Z,4.90
2022-11-27T01:06:35.399Z,4.80
2022-11-27T01:09:03.533Z,4.90
2022-11-27T01:11:33.870Z,4.90
2022-11-27T01:14:04.841Z,4.90
2022-11-27T01:16:34.995Z,4.90
2022-11-27T01:19:06.622Z,4.90
2022-11-27T01:21:35.868Z,4.90
2022-11-27T01:24:05.120Z,5.00
2022-11-27T01:26:33.421Z,5.00
2022-11-27T01:29:01.674Z,5.00
2022-11-27T01:31:32.371Z,5.00
2022-11-27T01:34:04.613Z,5.00
2022-11-27T01:36:34.503Z,5.00
2022-11-27T01:39:03.158Z,5.00
2022-11-27T01:41:33.600Z,5.10
2022-11-27T01:44:03.832Z,5.00
2022-11-27T01:46:38.505Z,5.00
2022-11-27T01:49:25.838Z,5.00
2022-11-27T01:52:07.283Z,5.00
2022-11-27T01:54:41.417Z,4.90
2022-11-27T01:57:14.516Z,4.90
2022-11-27T01:59:43.791Z,4.80
2022-11-27T02:02:12.121Z,4.90
2022-11-27T02:04:41.974Z,4.80
2022-11-27T02:07:11.786Z,4.90
2022-11-27T02:09:40.020Z,4.90
2022-11-27T02:12:24.748Z,4.80
2022-11-27T02:15:01.984Z,4.70
2022-11-27T02:17:35.154Z,4.80
2022-11-27T02:20:35.988Z,4.80
2022-11-27T02:23:45.777Z,4.80
2022-11-27T02:26:36.109Z,4.80
2022-11-27T02:29:10.231Z,5.00
2022-11-27T02:31:41.914Z,4.90
2022-11-27T02:34:22.820Z,4.90
2022-11-27T02:36:57.563Z,4.90
2022-11-27T02:39:34.297Z,5.00
2022-11-27T02:42:08.657Z,5.00
2022-11-27T02:44:45.792Z,4.90
2022-11-27T02:47:18.432Z,4.90
2022-11-27T02:49:49.369Z,5.00
2022-11-27T02:52:19.901Z,4.90
2022-11-27T02:54:51.001Z,5.00
2022-11-27T02:57:21.422Z,5.00
2022-11-27T02:59:52.072Z,5.00
2022-11-27T03:02:30.039Z,5.10
2022-11-27T03:05:02.316Z,5.20
2022-11-27T03:07:38.394Z,5.20
2022-11-27T03:10:12.873Z,5.10
2022-11-27T03:12:41.205Z,5.10
2022-11-27T03:15:12.492Z,5.10
2022-11-27T03:17:53.830Z,5.10
2022-11-27T03:20:26.661Z,5.10
2022-11-27T03:22:55.854Z,5.20
2022-11-27T03:25:27.509Z,5.20
2022-11-27T03:27:59.249Z,5.20
2022-11-27T03:30:29.083Z,5.20
2022-11-27T03:32:59.171Z,5.20
2022-11-27T03:35:28.322Z,5.20
2022-11-27T03:37:57.461Z,5.20
2022-11-27T03:40:31.441Z,5.20
2022-11-27T03:43:05.272Z,5.20
2022-11-27T03:45:40.812Z,5.20
2022-11-27T03:48:21.917Z,5.20
2022-11-27T03:51:01.793Z,5.20
2022-11-27T03:53:39.489Z,5.20
2022-11-27T03:56:25.319Z,5.30
2022-11-27T03:59:33.678Z,5.30
2022-11-27T04:02:03.365Z,5.30
2022-11-27T04:04:31.469Z,5.30
2022-11-27T04:06:59.791Z,5.30
2022-11-27T04:09:27.873Z,5.30
2022-11-27T04:11:55.938Z,5.30
2022-11-27T04:14:24.013Z,5.30
2022-11-27T04:16:52.049Z,5.30
2022-11-27T04:19:21.518Z,5.40
2022-11-27T04:21:49.527Z,5.30
2022-11-27T04:24:17.775Z,5.30
2022-11-27T04:26:46.089Z,5.30
2022-11-27T04:29:14.220Z,5.30
2022-11-27T04:31:42.276Z,5.30
2022-11-27T04:37:45.019Z,5.30
2022-11-27T04:40:14.392Z,5.30
2022-11-27T04:45:41.714Z,5.30
2022-11-27T04:48:09.742Z,5.30
2022-11-27T04:50:39.043Z,5.30
2022-11-27T04:53:11.847Z,5.30
2022-11-27T04:55:39.871Z,5.30
2022-11-27T04:58:08.143Z,5.30
2022-11-27T05:00:36.374Z,5.30
2022-11-27T05:03:04.949Z,5.30
2022-11-27T05:05:33.053Z,5.40
2022-11-27T05:08:01.146Z,5.40
2022-11-27T05:10:31.077Z,5.30
2022-11-27T05:13:00.301Z,5.30
2022-11-27T05:15:28.378Z,5.30
2022-11-27T05:17:56.424Z,5.40
2022-11-27T05:20:24.507Z,5.40
2022-11-27T05:22:54.090Z,5.40
2022-11-27T05:25:22.184Z,5.40
2022-11-27T05:27:51.601Z,5.40
2022-11-27T05:30:19.731Z,5.30
2022-11-27T05:32:47.958Z,5.30
2022-11-27T05:35:16.289Z,5.30
2022-11-27T05:37:44.519Z,5.30
2022-11-27T05:40:13.155Z,5.30
2022-11-27T05:42:41.362Z,5.30
2022-11-27T05:45:12.436Z,5.30
2022-11-27T05:47:40.756Z,5.30
2022-11-27T05:50:10.480Z,5.30
2022-11-27T05:52:41.523Z,5.30
2022-11-27T05:55:10.896Z,5.30
2022-11-27T05:57:39.821Z,5.30
2022-11-27T06:00:11.713Z,5.30
2022-11-27T06:02:40.151Z,5.30
2022-11-27T06:05:09.614Z,5.30
2022-11-27T06:07:37.744Z,5.20
2022-11-27T06:10:06.872Z,5.20
2022-11-27T06:12:36.668Z,5.20
2022-11-27T06:15:05.479Z,5.30
2022-11-27T06:17:36.317Z,5.30
2022-11-27T06:20:04.806Z,5.20
2022-11-27T06:22:32.956Z,5.20
2022-11-27T06:25:01.007Z,5.20
2022-11-27T06:27:33.799Z,5.20
2022-11-27T06:30:01.867Z,5.20
2022-11-27T06:32:31.008Z,5.20
2022-11-27T06:35:00.731Z,5.20
2022-11-27T06:37:29.001Z,5.20
2022-11-27T06:39:57.035Z,5.20
2022-11-27T06:42:25.141Z,5.20
2022-11-27T06:44:53.169Z,5.20
2022-11-27T06:47:21.230Z,5.20
2022-11-27T06:49:49.355Z,5.20
2022-11-27T06:52:18.811Z,5.20
2022-11-27T06:54:46.893Z,5.20
2022-11-27T06:57:15.443Z,5.30
2022-11-27T06:59:43.595Z,5.30
2022-11-27T07:02:15.065Z,5.40
2022-11-27T07:04:43.223Z,5.30
2022-11-27T07:07:11.466Z,5.40
2022-11-27T07:09:41.260Z,5.40
2022-11-27T07:12:10.330Z,5.40
2022-11-27T07:14:38.697Z,5.40
2022-11-27T07:17:07.057Z,5.40
2022-11-27T07:19:35.258Z,5.40
2022-11-27T07:22:03.820Z,5.40
2022-11-27T07:24:32.004Z,5.40
2022-11-27T07:27:01.807Z,5.50
2022-11-27T07:29:29.821Z,5.50
2022-11-27T07:31:57.872Z,5.50
2022-11-27T07:34:26.160Z,5.50
2022-11-27T07:36:54.252Z,5.50
2022-11-27T07:39:46.342Z,5.50
2022-11-27T07:42:37.070Z,5.50
2022-11-27T07:45:00.536Z,5.60
2022-11-27T07:47:31.109Z,5.60
2022-11-27T07:50:00.497Z,5.60
2022-11-27T07:52:28.865Z,5.60
2022-11-27T07:54:56.928Z,5.70
2022-11-27T07:57:26.412Z,5.70
2022-11-27T07:59:54.488Z,5.80
2022-11-27T08:02:22.586Z,5.80
2022-11-27T08:04:50.787Z,5.90
2022-11-27T08:07:19.148Z,5.90
2022-11-27T08:09:47.282Z,6.10
2022-11-27T08:12:15.706Z,6.00
2022-11-27T08:14:45.452Z,6.10
2022-11-27T08:17:14.324Z,6.10
2022-11-27T08:19:42.712Z,6.10
2022-11-27T08:22:13.618Z,6.10
2022-11-27T08:24:42.791Z,6.20
2022-11-27T08:27:11.284Z,6.20
2022-11-27T08:29:39.641Z,6.20
2022-11-27T08:32:09.298Z,6.30
2022-11-27T08:34:37.819Z,6.30
2022-11-27T08:37:06.307Z,6.30
2022-11-27T08:39:34.778Z,6.30
2022-11-27T08:42:03.101Z,6.30
2022-11-27T08:44:31.185Z,6.40
2022-11-27T08:46:59.288Z,6.40
2022-11-27T08:49:29.083Z,6.40
2022-11-27T08:51:57.163Z,6.40
2022-11-27T08:54:25.279Z,6.50
2022-11-27T08:56:54.401Z,6.50
2022-11-27T08:59:22.754Z,6.60
2022-11-27T09:01:50.950Z,6.60
2022-11-27T09:04:19.071Z,6.70
2022-11-27T09:06:52.884Z,6.70
2022-11-27T09:09:23.706Z,6.80
2022-11-27T09:11:51.782Z,6.80
2022-11-27T09:14:19.812Z,6.90
2022-11-27T09:16:48.016Z,6.90
2022-11-27T09:19:17.111Z,6.90
2022-11-27T09:21:45.401Z,7.00
2022-11-27T09:24:14.926Z,7.00
2022-11-27T09:26:44.675Z,7.00
2022-11-27T09:29:12.717Z,7.00
2022-11-27T09:31:41.136Z,7.00
2022-11-27T09:34:09.276Z,7.00
2022-11-27T09:36:37.527Z,7.00
2022-11-27T09:39:05.929Z,7.10
2022-11-27T09:41:43.430Z,7.00
2022-11-27T09:44:25.501Z,7.00
2022-11-27T09:46:54.753Z,7.10
2022-11-27T09:49:27.716Z,7.10
2022-11-27T09:52:01.130Z,7.10
2022-11-27T09:54:34.622Z,7.10
2022-11-27T09:57:05.528Z,7.10
2022-11-27T09:59:42.360Z,7.10
2022-11-27T10:02:18.959Z,7.10
2022-11-27T10:05:12.368Z,7.10
2022-11-27T10:07:47.555Z,7.10
2022-11-27T10:10:32.335Z,7.10
2022-11-27T10:13:08.340Z,7.20
2022-11-27T10:15:44.253Z,7.20
2022-11-27T10:18:18.631Z,7.20
2022-11-27T10:20:52.158Z,7.20
2022-11-27T10:23:28.405Z,7.30
2022-11-27T10:26:02.237Z,7.30
2022-11-27T10:28:41.556Z,7.30
2022-11-27T10:31:14.937Z,7.40
2022-11-27T10:33:48.657Z,7.40
2022-11-27T10:36:19.952Z,7.40
2022-11-27T10:38:49.553Z,7.50
2022-11-27T10:44:28.174Z,7.40
2022-11-27T10:47:00.939Z,7.40
2022-11-27T10:49:29.019Z,7.50
2022-11-27T10:51:57.131Z,7.60
2022-11-27T10:54:29.569Z,7.70
2022-11-27T10:57:13.048Z,7.80
2022-11-27T10:59:49.651Z,7.80
2022-11-27T11:02:32.310Z,7.90
2022-11-27T11:05:32.887Z,7.80
2022-11-27T11:08:04.656Z,7.90
2022-11-27T11:10:36.986Z,7.90
2022-11-27T11:13:17.726Z,7.90
2022-11-27T11:15:56.512Z,8.00
2022-11-27T11:18:26.744Z,8.00
2022-11-27T11:20:57.892Z,7.90
2022-11-27T11:23:34.868Z,8.00
2022-11-27T11:26:14.285Z,8.00
2022-11-27T11:28:52.621Z,8.00
2022-11-27T11:31:29.147Z,8.10
2022-11-27T11:34:03.416Z,8.20
2022-11-27T11:36:32.583Z,8.20
2022-11-27T11:39:04.358Z,8.30
2022-11-27T11:41:38.620Z,8.30
2022-11-27T11:44:07.283Z,8.40
2022-11-27T11:46:40.073Z,8.40
2022-11-27T11:49:17.095Z,8.40
2022-11-27T11:52:04.959Z,8.40
2022-11-27T11:54:44.514Z,8.40
2022-11-27T11:57:42.782Z,8.50
2022-11-27T12:00:15.314Z,8.50
2022-11-27T12:03:06.285Z,8.50
2022-11-27T12:05:41.601Z,8.60
2022-11-27T12:08:27.999Z,8.50
2022-11-27T12:11:04.270Z,8.60
2022-11-27T12:13:43.862Z,8.70
2022-11-27T12:16:19.353Z,8.70
2022-11-27T12:19:01.338Z,8.80
2022-11-27T12:21:39.680Z,8.80
2022-11-27T12:24:21.740Z,8.90
2022-11-27T12:27:03.210Z,8.90
2022-11-27T12:29:56.750Z,8.90
2022-11-27T12:32:52.868Z,8.90
2022-11-27T12:35:32.352Z,8.90
2022-11-27T12:38:14.873Z,9.00
2022-11-27T12:40:57.822Z,9.10
2022-11-27T12:43:27.613Z,9.10
2022-11-27T12:46:02.665Z,9.00
2022-11-27T12:48:36.301Z,9.10
2022-11-27T12:51:11.296Z,9.10
2022-11-27T12:53:44.190Z,9.10
2022-11-27T12:56:17.414Z,9.10
2022-11-27T12:58:48.615Z,9.10
2022-11-27T13:01:26.284Z,9.10
2022-11-27T13:04:06.474Z,9.00
2022-11-27T13:06:46.529Z,9.00
2022-11-27T13:09:19.773Z,9.10
2022-11-27T13:11:49.303Z,9.00
2022-11-27T13:14:20.550Z,8.90
2022-11-27T13:16:53.015Z,8.80
2022-11-27T13:19:26.540Z,8.70
2022-11-27T13:22:05.253Z,8.60
2022-11-27T13:24:35.273Z,8.60
2022-11-27T13:27:07.735Z,8.50
2022-11-27T13:29:44.039Z,8.50
2022-11-27T13:32:22.162Z,8.40
2022-11-27T13:34:53.189Z,8.50
2022-11-27T13:37:33.961Z,8.50
2022-11-27T13:40:05.719Z,8.50
2022-11-27T13:42:35.953Z,8.50
2022-11-27T13:45:07.611Z,8.50
2022-11-27T13:47:40.991Z,8.60
2022-11-27T13:50:11.613Z,8.70
2022-11-27T13:52:52.155Z,8.70
2022-11-27T13:55:27.119Z,8.70
2022-11-27T13:57:56.440Z,8.70
2022-11-27T14:00:34.143Z,8.70
2022-11-27T14:03:05.137Z,8.80
2022-11-27T14:05:40.181Z,8.80
2022-11-27T14:08:21.603Z,8.70
2022-11-27T14:10:57.127Z,8.70
2022-11-27T14:13:37.183Z,8.60
2022-11-27T14:16:24.495Z,8.60
2022-11-27T14:18:54.233Z,8.60
2022-11-27T14:21:26.966Z,8.60
2022-11-27T14:23:56.553Z,8.60
2022-11-27T14:26:26.393Z,8.60
2022-11-27T14:28:56.737Z,8.60
2022-11-27T14:31:29.360Z,8.50
2022-11-27T14:36:46.408Z,8.50
2022-11-27T14:39:24.742Z,8.40
2022-11-27T14:41:59.933Z,8.50
2022-11-27T14:44:28.360Z,8.50
2022-11-27T14:46:58.265Z,8.40
2022-11-27T14:49:27.970Z,8.50
2022-11-27T14:51:59.824Z,8.50
2022-11-27T14:54:32.497Z,8.50
2022-11-27T14:57:02.867Z,8.60
2022-11-27T14:59:31.119Z,8.60
2022-11-27T15:02:02.536Z,8.60
2022-11-27T15:04:34.854Z,8.60
2022-11-27T15:07:06.484Z,8.60
2022-11-27T15:09:38.675Z,8.60
2022-11-27T15:12:15.637Z,8.50
2022-11-27T15:14:48.031Z,8.60
2022-11-27T15:17:18.657Z,8.50
2022-11-27T15:19:47.659Z,8.50
2022-11-27T15:22:18.533Z,8.50
2022-11-27T15:24:58.639Z,8.50
2022-11-27T15:27:27.138Z,8.50
2022-11-27T15:30:14.273Z,8.50
2022-11-27T15:32:51.688Z,8.50
2022-11-27T15:35:25.680Z,8.40
2022-11-27T15:37:56.941Z,8.40
2022-11-27T15:40:32.020Z,8.40
2022-11-27T15:43:00.128Z,8.40
2022-11-27T15:45:31.426Z,8.50
2022-11-27T15:48:01.176Z,8.50
2022-11-27T15:50:30.233Z,8.40
2022-11-27T15:53:00.846Z,8.40
2022-11-27T15:55:30.694Z,8.40
2022-11-27T15:57:58.713Z,8.40
2022-11-27T16:00:27.035Z,8.50
2022-11-27T16:02:55.192Z,8.40
2022-11-27T16:05:23.244Z,8.40
2022-11-27T16:07:55.202Z,8.40
2022-11-27T16:10:23.508Z,8.40
2022-11-27T16:12:55.362Z,8.40
2022-11-27T16:15:25.055Z,8.40
2022-11-27T16:17:55.655Z,8.30
2022-11-27T16:20:23.657Z,8.40
2022-11-27T16:22:52.102Z,8.40
2022-11-27T16:25:20.460Z,8.30
2022-11-27T16:27:48.550Z,8.30
2022-11-27T16:30:19.953Z,8.30
2022-11-27T16:32:49.040Z,8.40
2022-11-27T16:35:17.128Z,8.30
2022-11-27T16:37:46.575Z,8.30
2022-11-27T16:40:18.114Z,8.20
2022-11-27T16:42:46.417Z,8.20
2022-11-27T16:45:14.443Z,8.20
2022-11-27T16:47:44.398Z,8.10
2022-11-27T16:50:12.834Z,8.10
2022-11-27T16:52:40.900Z,8.20
2022-11-27T16:55:09.979Z,8.20
2022-11-27T16:57:39.507Z,8.10
2022-11-27T17:00:09.586Z,8.10
2022-11-27T17:02:37.764Z,8.10
2022-11-27T17:05:08.273Z,8.10
2022-11-27T17:07:36.607Z,8.10
2022-11-27T17:10:05.148Z,8.10
2022-11-27T17:12:34.353Z,8.10
2022-11-27T17:15:03.631Z,8.10
2022-11-27T17:17:36.812Z,8.00
2022-11-27T17:20:10.373Z,8.00
2022-11-27T17:22:39.008Z,8.00
2022-11-27T17:25:10.962Z,8.00
2022-11-27T17:27:39.393Z,8.00
2022-11-27T17:30:08.919Z,8.00
2022-11-27T17:32:37.267Z,8.00
2022-11-27T17:35:07.068Z,8.00
2022-11-27T17:37:36.726Z,8.00
2022-11-27T17:40:05.396Z,8.00
2022-11-27T17:42:33.484Z,7.90
2022-11-27T17:45:01.895Z,7.90
2022-11-27T17:47:30.041Z,8.00
2022-11-27T17:49:58.875Z,7.90
2022-11-27T17:52:56.962Z,7.90
2022-11-27T17:55:30.125Z,7.90
2022-11-27T17:57:59.072Z,7.90
2022-11-27T18:00:36.552Z,7.90
2022-11-27T18:03:30.497Z,7.90
2022-11-27T18:06:02.668Z,7.90
2022-11-27T18:08:33.018Z,7.90
2022-11-27T18:11:07.663Z,7.90
2022-11-27T18:13:35.862Z,8.00
2022-11-27T18:16:09.565Z,7.90
2022-11-27T18:18:38.709Z,7.90
2022-11-27T18:21:08.636Z,8.00
2022-11-27T18:23:54.111Z,7.90
2022-11-27T18:26:45.518Z,7.90
2022-11-27T18:29:16.253Z,7.90
2022-11-27T18:31:44.509Z,7.90
2022-11-27T18:34:12.602Z,7.90
2022-11-27T18:36:40.671Z,7.90
2022-11-27T18:39:10.252Z,7.90
2022-11-27T18:41:38.587Z,7.90
2022-11-27T18:44:06.669Z,7.90
2022-11-27T18:46:34.934Z,7.90
2022-11-27T18:49:04.123Z,7.80
2022-11-27T18:51:32.230Z,7.80
2022-11-27T18:54:00.261Z,7.70
2022-11-27T18:56:31.904Z,7.70
2022-11-27T18:59:03.093Z,7.60
2022-11-27T19:01:42.518Z,7.60
2022-11-27T19:04:11.798Z,7.50
2022-11-27T19:06:42.053Z,7.60
2022-11-27T19:09:11.606Z,7.60
2022-11-27T19:11:41.734Z,7.60
2022-11-27T19:14:10.523Z,7.60
2022-11-27T19:16:45.935Z,7.60
2022-11-27T19:19:52.976Z,7.60
2022-11-27T19:22:07.431Z,7.60
2022-11-27T19:24:35.579Z,7.60
2022-11-27T19:27:05.278Z,7.60
2022-11-27T19:29:33.612Z,7.60
2022-11-27T19:32:01.792Z,7.60
2022-11-27T19:34:29.898Z,7.50
2022-11-27T19:36:58.993Z,7.60
2022-11-27T19:39:27.800Z,7.60
2022-11-27T19:41:57.657Z,7.50
2022-11-27T19:44:27.311Z,7.50
2022-11-27T19:46:55.511Z,7.40
2022-11-27T19:49:24.359Z,7.40
2022-11-27T19:51:52.516Z,7.40
2022-11-27T19:54:21.775Z,7.40
2022-11-27T19:56:51.481Z,7.30
2022-11-27T19:59:25.622Z,7.40
2022-11-27T20:01:56.658Z,7.30
2022-11-27T20:04:29.533Z,7.40
2022-11-27T20:06:57.715Z,7.40
2022-11-27T20:09:27.814Z,7.40
2022-11-27T20:11:55.812Z,7.40
2022-11-27T20:14:23.827Z,7.40
2022-11-27T20:16:52.123Z,7.40
2022-11-27T20:19:21.649Z,7.40
2022-11-27T20:21:50.959Z,7.40
2022-11-27T20:24:19.709Z,7.40
2022-11-27T20:26:48.030Z,7.40
2022-11-27T20:29:16.327Z,7.40
2022-11-27T20:31:44.947Z,7.40
2022-11-27T20:34:19.857Z,7.30
2022-11-27T20:36:51.019Z,7.40
2022-11-27T20:39:21.890Z,7.30
2022-11-27T20:41:53.413Z,7.40
2022-11-27T20:44:23.452Z,7.30
2022-11-27T20:46:51.802Z,7.30
2022-11-27T20:49:20.572Z,7.30
2022-11-27T20:51:50.725Z,7.40
2022-11-27T20:54:22.918Z,7.30
2022-11-27T20:56:55.019Z,7.40
2022-11-27T20:59:23.934Z,7.40
2022-11-27T21:01:52.039Z,7.40
2022-11-27T21:04:24.887Z,7.40
2022-11-27T21:06:55.582Z,7.50
2022-11-27T21:09:24.835Z,7.40
2022-11-27T21:11:54.185Z,7.50
2022-11-27T21:14:22.312Z,7.50
2022-11-27T21:16:51.928Z,7.50
2022-11-27T21:19:22.780Z,7.50
2022-11-27T21:21:51.916Z,7.50
2022-11-27T21:24:25.667Z,7.60
2022-11-27T21:26:54.008Z,7.60
2022-11-27T21:29:25.385Z,7.50
2022-11-27T21:31:55.352Z,7.50
2022-11-27T21:34:24.456Z,7.50
2022-11-27T21:36:52.701Z,7.50
2022-11-27T21:39:22.060Z,7.50
2022-11-27T21:41:51.543Z,7.60
2022-11-27T21:44:21.436Z,7.60
2022-11-27T21:46:50.040Z,7.60
2022-11-27T21:49:21.339Z,7.50
2022-11-27T21:51:52.940Z,7.50
2022-11-27T21:54:23.066Z,7.40
2022-11-27T21:56:52.701Z,7.40
2022-11-27T21:59:21.052Z,7.40
2022-11-27T22:01:49.195Z,7.40
2022-11-27T22:04:17.516Z,7.40
2022-11-27T22:06:46.140Z,7.40
2022-11-27T22:09:16.080Z,7.40
2022-11-27T22:11:48.831Z,7.40
2022-11-27T22:14:17.631Z,7.30
2022-11-27T22:16:47.265Z,7.30
2022-11-27T22:19:17.261Z,7.20
2022-11-27T22:21:45.844Z,7.30
2022-11-27T22:24:19.376Z,7.20
2022-11-27T22:26:53.052Z,7.30
2022-11-27T22:29:21.179Z,7.30
2022-11-27T22:31:49.311Z,7.40
2022-11-27T22:34:17.527Z,7.40
2022-11-27T22:36:46.572Z,7.30
2022-11-27T22:39:14.716Z,7.40
2022-11-27T22:41:43.156Z,7.40
2022-11-27T22:44:18.727Z,7.30
2022-11-27T22:46:48.090Z,7.30
2022-11-27T22:49:19.503Z,7.30
2022-11-27T22:51:48.157Z,7.20
2022-11-27T22:54:17.891Z,7.20
2022-11-27T22:56:47.110Z,7.20
2022-11-27T22:59:32.285Z,7.10
2022-11-27T23:02:02.637Z,7.10
2022-11-27T23:04:35.454Z,7.10
2022-11-27T23:07:04.607Z,7.00
2022-11-27T23:09:32.692Z,7.00
2022-11-27T23:12:00.750Z,7.00
2022-11-27T23:14:30.176Z,7.00
2022-11-27T23:16:58.307Z,7.00
2022-11-27T23:19:26.449Z,6.90
2022-11-27T23:21:54.494Z,6.90
2022-11-27T23:24:22.499Z,6.90
2022-11-27T23:26:50.610Z,6.90
2022-11-27T23:29:18.646Z,6.90
2022-11-27T23:31:48.075Z,6.90
2022-11-27T23:34:16.669Z,6.90
2022-11-27T23:36:45.124Z,6.90
2022-11-27T23:39:14.916Z,6.90
2022-11-27T23:41:43.467Z,6.90
2022-11-27T23:44:14.581Z,6.90
2022-11-27T23:46:42.616Z,6.90
2022-11-27T23:49:12.210Z,6.90
2022-11-27T23:51:40.287Z,6.90
2022-11-27T23:54:10.380Z,6.90
2022-11-27T23:56:39.515Z,6.90
2022-11-27T23:59:08.010Z,7.00
